createdAt,value
2023-04-16T00:00:36.228Z,12.35
2023-04-16T00:03:04.228Z,13.30
2023-04-16T00:05:31.809Z,13.80
2023-04-16T00:07:59.259Z,12.05
2023-04-16T00:10:28.387Z,11.95
2023-04-16T00:12:55.890Z,12.48
2023-04-16T00:15:23.958Z,12.27
2023-04-16T00:17:51.481Z,12.10
2023-04-16T00:20:19.131Z,12.20
2023-04-16T00:22:46.963Z,11.00
2023-04-16T00:25:14.445Z,11.30
2023-04-16T00:27:43.458Z,10.55
2023-04-16T00:30:11.314Z,9.45
2023-04-16T00:32:38.854Z,12.57
2023-04-16T00:35:07.702Z,10.52
2023-04-16T00:37:35.678Z,12.30
2023-04-16T00:40:03.441Z,12.15
2023-04-16T00:42:31.012Z,12.60
2023-04-16T00:44:59.945Z,11.48
2023-04-16T00:47:27.651Z,13.23
2023-04-16T00:49:55.439Z,8.88
2023-04-16T00:52:22.942Z,11.38
2023-04-16T00:54:52.529Z,11.75
2023-04-16T00:57:20.682Z,12.23
2023-04-16T00:59:48.161Z,12.07
2023-04-16T01:02:17.832Z,11.20
2023-04-16T01:04:45.526Z,12.27
2023-04-16T01:07:13.149Z,11.43
2023-04-16T01:09:40.658Z,10.23
2023-04-16T01:12:08.135Z,14.43
2023-04-16T01:14:35.654Z,16.67
2023-04-16T01:17:03.682Z,13.10
2023-04-16T01:19:32.936Z,11.85
2023-04-16T01:24:29.545Z,13.32
2023-04-16T01:26:58.646Z,10.43
2023-04-16T01:29:26.733Z,14.27
2023-04-16T01:31:56.662Z,14.30
2023-04-16T01:34:30.223Z,10.32
2023-04-16T01:36:57.657Z,13.63
2023-04-16T01:39:26.734Z,10.55
2023-04-16T01:41:54.665Z,11.65
2023-04-16T01:44:22.116Z,12.38
2023-04-16T01:46:49.844Z,11.40
2023-04-16T01:49:17.540Z,11.95
2023-04-16T01:51:45.077Z,10.80
2023-04-16T01:54:12.773Z,12.82
2023-04-16T01:56:42.397Z,17.40
2023-04-16T01:59:10.108Z,18.63
2023-04-16T02:01:41.148Z,15.35
2023-04-16T02:04:09.755Z,14.15
2023-04-16T02:06:37.308Z,13.90
2023-04-16T02:09:04.908Z,10.73
2023-04-16T02:11:32.865Z,11.88
2023-04-16T02:14:02.075Z,11.52
2023-04-16T02:16:29.684Z,10.75
2023-04-16T02:19:04.533Z,9.68
2023-04-16T02:21:35.241Z,12.52
2023-04-16T02:24:03.029Z,14.82
2023-04-16T02:26:31.619Z,13.93
2023-04-16T02:29:06.965Z,12.27
2023-04-16T02:31:45.482Z,9.38
2023-04-16T02:34:14.113Z,11.03
2023-04-16T02:36:42.699Z,10.27
2023-04-16T02:39:11.414Z,9.73
2023-04-16T02:41:39.158Z,8.93
2023-04-16T02:44:08.337Z,12.48
2023-04-16T02:46:36.119Z,9.02
2023-04-16T02:49:03.591Z,9.55
2023-04-16T02:51:31.056Z,13.20
2023-04-16T02:53:58.519Z,9.50
2023-04-16T02:56:26.022Z,14.05
2023-04-16T02:58:53.494Z,11.43
2023-04-16T03:01:22.510Z,10.35
2023-04-16T03:03:50.072Z,9.45
2023-04-16T03:06:17.581Z,9.10
2023-04-16T03:08:45.088Z,9.82
2023-04-16T03:11:12.554Z,9.23
2023-04-16T03:13:39.990Z,7.05
2023-04-16T03:16:08.154Z,9.55
2023-04-16T03:18:37.267Z,10.73
2023-04-16T03:21:05.413Z,8.18
2023-04-16T03:23:32.848Z,9.18
2023-04-16T03:26:00.460Z,9.32
2023-04-16T03:28:28.382Z,7.82
2023-04-16T03:30:55.916Z,9.38
2023-04-16T03:33:23.432Z,8.85
2023-04-16T03:35:57.637Z,10.30
2023-04-16T03:38:27.208Z,7.43
2023-04-16T03:40:57.309Z,9.80
2023-04-16T03:43:24.850Z,9.40
2023-04-16T03:45:52.991Z,10.82
2023-04-16T03:48:23.776Z,9.23
2023-04-16T03:50:51.281Z,10.57
2023-04-16T03:55:50.819Z,9.43
2023-04-16T03:58:18.889Z,9.13
2023-04-16T04:00:47.734Z,10.80
2023-04-16T04:03:16.960Z,8.90
2023-04-16T04:05:46.820Z,10.35
2023-04-16T04:08:17.586Z,9.10
2023-04-16T04:10:46.633Z,9.77
2023-04-16T04:13:15.498Z,9.30
2023-04-16T04:15:44.688Z,8.18
2023-04-16T04:18:12.480Z,8.50
2023-04-16T04:20:40.398Z,10.65
2023-04-16T04:23:08.552Z,9.27
2023-04-16T04:25:36.030Z,8.60
2023-04-16T04:28:05.319Z,8.48
2023-04-16T04:30:32.757Z,9.18
2023-04-16T04:33:00.388Z,10.23
2023-04-16T04:35:28.003Z,8.95
2023-04-16T04:37:55.799Z,9.05
2023-04-16T04:40:23.335Z,8.63
2023-04-16T04:42:52.912Z,8.77
2023-04-16T04:45:24.730Z,8.00
2023-04-16T04:47:53.805Z,8.43
2023-04-16T04:50:21.992Z,9.25
2023-04-16T04:52:49.491Z,8.80
2023-04-16T04:55:16.957Z,10.60
2023-04-16T04:57:44.453Z,9.30
2023-04-16T05:00:12.712Z,9.35
2023-04-16T05:02:49.055Z,7.68
2023-04-16T05:05:16.760Z,8.15
2023-04-16T05:07:45.085Z,9.93
2023-04-16T05:10:12.537Z,7.85
2023-04-16T05:12:40.415Z,9.52
2023-04-16T05:15:09.095Z,7.75
2023-04-16T05:17:36.737Z,8.70
2023-04-16T05:20:07.341Z,8.38
2023-04-16T05:22:34.993Z,8.38
2023-04-16T05:25:02.490Z,8.55
2023-04-16T05:27:29.969Z,7.60
2023-04-16T05:29:57.467Z,9.95
2023-04-16T05:32:26.576Z,8.68
2023-04-16T05:34:54.440Z,8.50
2023-04-16T05:37:23.419Z,8.13
2023-04-16T05:39:50.967Z,8.10
2023-04-16T05:42:18.551Z,9.00
2023-04-16T05:44:45.984Z,7.78
2023-04-16T05:47:13.480Z,10.32
2023-04-16T05:49:41.052Z,11.45
2023-04-16T05:52:08.709Z,9.82
2023-04-16T05:54:37.799Z,9.10
2023-04-16T05:57:05.220Z,11.37
2023-04-16T05:59:32.648Z,8.88
2023-04-16T06:02:00.233Z,8.90
2023-04-16T06:04:27.850Z,8.02
2023-04-16T06:06:55.405Z,10.02
2023-04-16T06:09:22.886Z,9.05
2023-04-16T06:11:51.925Z,9.05
2023-04-16T06:14:19.420Z,10.63
2023-04-16T06:16:47.376Z,7.55
2023-04-16T06:19:14.948Z,7.50
2023-04-16T06:21:42.502Z,17.17
2023-04-16T06:24:10.013Z,8.40
2023-04-16T06:26:37.462Z,10.63
2023-04-16T06:29:06.370Z,8.30
2023-04-16T06:31:33.989Z,9.75
2023-04-16T06:34:01.573Z,8.93
2023-04-16T06:36:29.123Z,9.35
2023-04-16T06:38:56.645Z,8.35
2023-04-16T06:41:24.217Z,13.05
2023-04-16T06:43:51.751Z,9.65
2023-04-16T06:46:20.745Z,8.15
2023-04-16T06:48:48.243Z,9.35
2023-04-16T06:51:16.349Z,10.38
2023-04-16T06:53:43.960Z,10.10
2023-04-16T06:56:11.493Z,11.00
2023-04-16T06:58:39.003Z,9.65
2023-04-16T07:01:06.794Z,11.55
2023-04-16T07:03:36.743Z,8.95
2023-04-16T07:06:05.003Z,9.27
2023-04-16T07:08:32.508Z,8.63
2023-04-16T07:11:00.065Z,7.05
2023-04-16T07:13:27.774Z,10.55
2023-04-16T07:15:55.378Z,10.07
2023-04-16T07:18:23.017Z,10.57
2023-04-16T07:20:51.971Z,7.80
2023-04-16T07:23:19.679Z,10.77
2023-04-16T07:25:47.151Z,7.90
2023-04-16T07:28:14.638Z,10.40
2023-04-16T07:30:42.196Z,9.90
2023-04-16T07:33:10.178Z,8.25
2023-04-16T07:35:37.668Z,10.75
2023-04-16T07:38:06.673Z,9.25
2023-04-16T07:40:34.173Z,10.43
2023-04-16T07:43:01.866Z,10.55
2023-04-16T07:45:29.397Z,7.95
2023-04-16T07:47:56.857Z,9.75
2023-04-16T07:50:24.871Z,10.13
2023-04-16T07:52:52.384Z,10.07
2023-04-16T07:55:21.518Z,10.85
2023-04-16T07:57:49.011Z,11.18
2023-04-16T08:00:16.873Z,8.95
2023-04-16T08:02:45.010Z,10.50
2023-04-16T08:05:13.484Z,11.52
2023-04-16T08:07:41.242Z,9.35
2023-04-16T08:10:09.646Z,9.63
2023-04-16T08:12:38.621Z,8.70
2023-04-16T08:15:07.409Z,9.52
2023-04-16T08:17:35.008Z,9.52
2023-04-16T08:20:02.580Z,10.93
2023-04-16T08:22:30.096Z,9.13
2023-04-16T08:24:57.647Z,9.77
2023-04-16T08:27:25.249Z,9.23
2023-04-16T08:29:54.469Z,9.13
2023-04-16T08:32:22.123Z,9.40
2023-04-16T08:34:50.512Z,10.95
2023-04-16T08:37:18.102Z,8.52
2023-04-16T08:39:45.595Z,7.97
2023-04-16T08:42:19.382Z,7.00
2023-04-16T08:44:52.313Z,8.13
2023-04-16T08:47:24.218Z,7.70
2023-04-16T08:49:58.367Z,10.02
2023-04-16T08:52:28.896Z,7.43
2023-04-16T08:55:02.821Z,8.35
2023-04-16T08:57:37.703Z,8.90
2023-04-16T09:00:06.747Z,9.15
2023-04-16T09:02:36.722Z,9.15
2023-04-16T09:05:07.434Z,7.53
2023-04-16T09:07:35.419Z,8.18
2023-04-16T09:10:03.819Z,7.78
2023-04-16T09:12:31.466Z,9.43
2023-04-16T09:15:01.024Z,7.47
2023-04-16T09:17:29.007Z,7.10
2023-04-16T09:19:58.062Z,10.10
2023-04-16T09:22:25.614Z,8.40
2023-04-16T09:24:53.097Z,6.70
2023-04-16T09:27:22.028Z,7.35
2023-04-16T09:29:50.695Z,7.88
2023-04-16T09:32:18.319Z,6.90
2023-04-16T09:34:58.269Z,7.68
2023-04-16T09:37:27.023Z,10.25
2023-04-16T09:39:57.030Z,9.00
2023-04-16T09:42:26.393Z,9.13
2023-04-16T09:44:54.296Z,8.15
2023-04-16T09:47:22.580Z,8.32
2023-04-16T09:49:50.088Z,9.23
2023-04-16T09:52:20.735Z,9.73
2023-04-16T09:54:49.226Z,9.32
2023-04-16T09:57:19.754Z,11.20
2023-04-16T09:59:47.450Z,9.43
2023-04-16T10:02:16.593Z,11.00
2023-04-16T10:04:48.878Z,8.50
2023-04-16T10:07:17.013Z,9.73
2023-04-16T10:09:46.652Z,8.27
2023-04-16T10:12:14.421Z,9.52
2023-04-16T10:14:42.498Z,9.07
2023-04-16T10:17:10.853Z,10.80
2023-04-16T10:19:38.817Z,9.35
2023-04-16T10:22:06.466Z,10.80
2023-04-16T10:24:34.847Z,8.57
2023-04-16T10:27:03.923Z,8.95
2023-04-16T10:29:32.053Z,7.97
2023-04-16T10:32:00.686Z,8.27
2023-04-16T10:34:28.814Z,7.70
2023-04-16T10:36:56.429Z,10.50
2023-04-16T10:39:24.820Z,11.68
2023-04-16T10:42:09.092Z,13.55
2023-04-16T10:44:36.738Z,8.70
2023-04-16T10:47:10.645Z,11.27
2023-04-16T10:49:38.097Z,11.57
2023-04-16T10:52:10.117Z,12.95
2023-04-16T10:54:37.758Z,11.48
2023-04-16T10:57:06.450Z,8.70
2023-04-16T10:59:37.467Z,9.85
2023-04-16T11:02:08.902Z,9.25
2023-04-16T11:04:38.106Z,10.38
2023-04-16T11:07:13.113Z,10.25
2023-04-16T11:09:51.109Z,11.13
2023-04-16T11:12:20.286Z,9.90
2023-04-16T11:14:51.409Z,14.43
2023-04-16T11:17:19.548Z,12.00
2023-04-16T11:19:47.460Z,12.27
2023-04-16T11:22:17.248Z,12.27
2023-04-16T11:24:45.715Z,12.18
2023-04-16T11:27:13.984Z,10.02
2023-04-16T11:29:41.604Z,8.90
2023-04-16T11:32:10.796Z,9.60
2023-04-16T11:34:45.171Z,11.50
2023-04-16T11:37:12.668Z,14.68
2023-04-16T11:39:52.851Z,11.98
2023-04-16T11:42:21.696Z,12.88
2023-04-16T11:45:02.441Z,14.13
2023-04-16T11:47:31.975Z,10.68
2023-04-16T11:50:16.797Z,13.95
2023-04-16T11:52:44.394Z,13.25
2023-04-16T11:55:12.839Z,12.90
2023-04-16T11:57:40.391Z,13.07
2023-04-16T12:00:10.585Z,14.45
2023-04-16T12:02:44.623Z,10.82
2023-04-16T12:05:27.923Z,10.52
2023-04-16T12:07:55.748Z,14.30
2023-04-16T12:10:23.493Z,13.45
2023-04-16T12:12:51.005Z,13.07
2023-04-16T12:15:18.526Z,12.82
2023-04-16T12:17:47.475Z,10.80
2023-04-16T12:20:15.887Z,12.43
2023-04-16T12:22:46.412Z,13.60
2023-04-16T12:25:15.685Z,11.48
2023-04-16T12:27:44.786Z,14.40
2023-04-16T12:30:14.148Z,11.05
2023-04-16T12:32:42.557Z,12.35
2023-04-16T12:35:11.832Z,11.52
2023-04-16T12:37:39.485Z,12.30
2023-04-16T12:40:08.050Z,9.52
2023-04-16T12:42:35.585Z,10.00
2023-04-16T12:45:03.968Z,10.00
2023-04-16T12:47:31.784Z,13.85
2023-04-16T12:49:59.705Z,9.77
2023-04-16T12:52:28.765Z,12.43
2023-04-16T12:54:56.256Z,11.63
2023-04-16T12:57:23.715Z,9.10
2023-04-16T12:59:51.739Z,11.48
2023-04-16T13:02:19.403Z,10.18
2023-04-16T13:04:47.045Z,12.13
2023-04-16T13:07:14.648Z,10.93
2023-04-16T13:09:43.618Z,7.90
2023-04-16T13:12:11.168Z,12.88
2023-04-16T13:14:38.745Z,11.82
2023-04-16T13:17:06.228Z,10.18
2023-04-16T13:19:34.035Z,11.05
2023-04-16T13:22:01.559Z,12.07
2023-04-16T13:24:30.266Z,11.35
2023-04-16T13:26:59.173Z,10.40
2023-04-16T13:29:26.672Z,16.07
2023-04-16T13:31:54.897Z,11.23
2023-04-16T13:34:22.460Z,12.80
2023-04-16T13:36:50.059Z,13.15
2023-04-16T13:39:17.536Z,12.48
2023-04-16T13:44:15.920Z,12.10
2023-04-16T13:46:43.497Z,10.98
2023-04-16T13:49:11.375Z,11.82
2023-04-16T13:51:39.072Z,13.00
2023-04-16T13:54:06.551Z,13.77
2023-04-16T13:56:34.027Z,13.30
2023-04-16T13:59:01.558Z,15.98
2023-04-16T14:01:30.586Z,17.10
2023-04-16T14:03:58.164Z,14.05
2023-04-16T14:06:25.746Z,12.68
2023-04-16T14:08:53.189Z,14.13
2023-04-16T14:11:20.794Z,14.85
2023-04-16T14:13:48.455Z,13.00
2023-04-16T14:16:16.287Z,14.80
2023-04-16T14:18:45.213Z,13.32
2023-04-16T14:21:13.583Z,14.30
2023-04-16T14:23:41.623Z,12.57
2023-04-16T14:26:09.110Z,15.90
2023-04-16T14:28:37.112Z,12.52
2023-04-16T14:31:04.709Z,14.00
2023-04-16T14:33:32.247Z,12.82
2023-04-16T14:36:02.910Z,13.10
2023-04-16T14:38:31.008Z,13.63
2023-04-16T14:40:58.542Z,12.52
2023-04-16T14:43:26.059Z,14.90
2023-04-16T14:45:53.626Z,13.57
2023-04-16T14:48:21.137Z,12.60
2023-04-16T14:50:48.619Z,11.50
2023-04-16T14:53:17.605Z,13.20
2023-04-16T14:55:45.136Z,10.00
2023-04-16T14:58:13.095Z,12.80
2023-04-16T15:00:41.015Z,11.98
2023-04-16T15:03:08.849Z,12.32
2023-04-16T15:05:37.005Z,14.85
2023-04-16T15:08:05.070Z,12.82
2023-04-16T15:10:34.034Z,11.68
2023-04-16T15:13:01.737Z,11.52
2023-04-16T15:15:29.412Z,10.98
2023-04-16T15:17:57.183Z,12.57
2023-04-16T15:20:24.646Z,13.07
2023-04-16T15:22:53.927Z,11.60
2023-04-16T15:25:21.397Z,12.55
2023-04-16T15:27:50.276Z,12.43
2023-04-16T15:30:18.067Z,10.00
2023-04-16T15:32:45.671Z,12.75
2023-04-16T15:35:14.212Z,11.32
2023-04-16T15:37:41.696Z,13.10
2023-04-16T15:40:09.876Z,13.25
2023-04-16T15:42:37.911Z,11.52
2023-04-16T15:45:07.626Z,11.73
2023-04-16T15:50:04.129Z,11.57
2023-04-16T15:52:31.688Z,13.93
2023-04-16T15:55:00.734Z,12.43
2023-04-16T15:57:29.178Z,12.73
2023-04-16T16:00:06.371Z,12.45
2023-04-16T16:02:37.727Z,13.48
2023-04-16T16:05:06.788Z,11.13
2023-04-16T16:07:34.472Z,13.03
2023-04-16T16:10:02.251Z,10.95
2023-04-16T16:12:30.438Z,11.45
2023-04-16T16:14:58.513Z,12.00
2023-04-16T16:17:26.435Z,13.88
2023-04-16T16:19:55.673Z,11.30
2023-04-16T16:22:23.217Z,13.38
2023-04-16T16:24:51.212Z,12.63
2023-04-16T16:27:19.041Z,11.27
2023-04-16T16:29:46.986Z,12.05
2023-04-16T16:32:14.757Z,10.90
2023-04-16T16:34:42.357Z,15.93
2023-04-16T16:37:11.385Z,10.98
2023-04-16T16:39:39.116Z,9.85
2023-04-16T16:42:06.777Z,10.23
2023-04-16T16:44:34.379Z,14.57
2023-04-16T16:47:01.888Z,9.10
2023-04-16T16:49:29.430Z,10.13
2023-04-16T16:51:56.898Z,9.15
2023-04-16T16:54:25.881Z,9.98
2023-04-16T16:56:53.409Z,8.35
2023-04-16T16:59:20.857Z,7.43
2023-04-16T17:01:48.373Z,10.05
2023-04-16T17:04:17.851Z,9.52
2023-04-16T17:06:47.642Z,9.48
2023-04-16T17:09:15.151Z,9.63
2023-04-16T17:11:44.213Z,7.70
2023-04-16T17:14:11.716Z,11.43
2023-04-16T17:16:39.231Z,9.18
2023-04-16T17:19:06.993Z,9.60
2023-04-16T17:21:34.426Z,9.82
2023-04-16T17:24:01.881Z,12.57
2023-04-16T17:26:29.484Z,8.15
2023-04-16T17:28:58.500Z,10.98
2023-04-16T17:31:27.133Z,8.50
2023-04-16T17:33:54.820Z,9.60
2023-04-16T17:36:22.346Z,10.15
2023-04-16T17:38:49.811Z,8.00
2023-04-16T17:41:17.326Z,7.95
2023-04-16T17:43:47.881Z,8.52
2023-04-16T17:46:16.866Z,8.38
2023-04-16T17:48:44.538Z,8.25
2023-04-16T17:51:12.265Z,8.38
2023-04-16T17:53:39.797Z,11.90
2023-04-16T17:56:07.304Z,7.75
2023-04-16T17:58:34.964Z,9.10
2023-04-16T18:01:02.755Z,10.02
2023-04-16T18:03:32.673Z,7.72
2023-04-16T18:06:00.725Z,9.30
2023-04-16T18:08:28.358Z,9.05
2023-04-16T18:10:56.227Z,10.20
2023-04-16T18:13:24.289Z,7.85
2023-04-16T18:15:51.857Z,8.48
2023-04-16T18:18:19.404Z,9.40
2023-04-16T18:20:48.351Z,10.80
2023-04-16T18:23:15.847Z,8.57
2023-04-16T18:25:44.585Z,10.60
2023-04-16T18:28:14.063Z,11.33
2023-04-16T18:30:42.623Z,9.20
2023-04-16T18:35:40.803Z,11.15
2023-04-16T18:38:10.328Z,8.73
2023-04-16T18:40:38.245Z,9.93
2023-04-16T18:43:05.727Z,10.85
2023-04-16T18:45:34.286Z,11.27
2023-04-16T18:48:02.108Z,10.53
2023-04-16T18:50:29.828Z,8.88
2023-04-16T18:52:57.329Z,8.25
2023-04-16T18:55:26.787Z,9.80
2023-04-16T18:57:54.227Z,9.40
2023-04-16T19:00:21.836Z,9.13
2023-04-16T19:02:49.400Z,10.32
2023-04-16T19:05:17.081Z,8.93
2023-04-16T19:07:44.561Z,7.60
2023-04-16T19:10:12.052Z,11.50
2023-04-16T19:12:40.981Z,10.20
2023-04-16T19:15:08.974Z,8.63
2023-04-16T19:17:36.670Z,9.50
2023-04-16T19:20:04.892Z,8.07
2023-04-16T19:22:32.374Z,7.45
2023-04-16T19:25:00.047Z,10.07
2023-04-16T19:27:29.273Z,7.85
2023-04-16T19:29:58.165Z,8.60
2023-04-16T19:32:25.720Z,9.85
2023-04-16T19:34:53.218Z,11.23
2023-04-16T19:37:20.669Z,11.68
2023-04-16T19:39:49.129Z,10.77
2023-04-16T19:42:16.546Z,11.25
2023-04-16T19:44:44.086Z,9.38
2023-04-16T19:47:13.023Z,8.90
2023-04-16T19:49:40.693Z,8.13
2023-04-16T19:52:08.174Z,8.10
2023-04-16T19:54:35.750Z,8.60
2023-04-16T19:57:03.337Z,6.72
2023-04-16T19:59:30.816Z,7.50
2023-04-16T20:01:58.378Z,8.25
2023-04-16T20:04:27.479Z,8.35
2023-04-16T20:06:54.981Z,8.43
2023-04-16T20:09:22.752Z,7.75
2023-04-16T20:11:50.210Z,10.70
2023-04-16T20:14:17.790Z,8.48
2023-04-16T20:16:45.290Z,9.60
2023-04-16T20:19:13.615Z,8.88
2023-04-16T20:21:43.133Z,9.68
2023-04-16T20:24:10.582Z,11.00
2023-04-16T20:26:38.034Z,8.68
2023-04-16T20:29:05.510Z,9.70
2023-04-16T20:31:32.956Z,7.25
2023-04-16T20:34:00.538Z,7.82
2023-04-16T20:36:28.037Z,9.68
2023-04-16T20:38:57.374Z,8.98
2023-04-16T20:41:24.822Z,8.38
2023-04-16T20:43:52.312Z,8.55
2023-04-16T20:46:21.316Z,10.25
2023-04-16T20:48:50.063Z,8.45
2023-04-16T20:51:17.609Z,9.15
2023-04-16T20:53:45.069Z,8.60
2023-04-16T20:56:13.993Z,9.60
2023-04-16T20:58:42.146Z,9.52
2023-04-16T21:01:09.678Z,8.52
2023-04-16T21:03:37.403Z,7.70
2023-04-16T21:06:05.091Z,8.18
2023-04-16T21:08:32.658Z,6.03
2023-04-16T21:11:00.172Z,8.25
2023-04-16T21:13:32.265Z,6.50
2023-04-16T21:15:59.748Z,6.65
2023-04-16T21:18:27.235Z,7.70
2023-04-16T21:20:55.668Z,9.15
2023-04-16T21:23:23.198Z,8.20
2023-04-16T21:25:50.652Z,9.45
2023-04-16T21:28:18.216Z,7.43
2023-04-16T21:30:50.791Z,7.20
2023-04-16T21:33:19.124Z,6.88
2023-04-16T21:35:52.069Z,6.65
2023-04-16T21:38:20.289Z,7.18
2023-04-16T21:40:47.948Z,6.65
2023-04-16T21:43:15.429Z,7.82
2023-04-16T21:45:42.889Z,7.78
2023-04-16T21:48:12.455Z,6.93
2023-04-16T21:50:40.031Z,6.18
2023-04-16T21:53:07.470Z,5.28
2023-04-16T21:55:35.034Z,6.97
2023-04-16T21:58:02.666Z,7.40
2023-04-16T22:00:30.262Z,6.22
2023-04-16T22:02:58.019Z,8.88
2023-04-16T22:05:27.168Z,6.65
2023-04-16T22:07:54.632Z,6.20
2023-04-16T22:10:22.084Z,6.25
2023-04-16T22:12:49.666Z,9.00
2023-04-16T22:15:17.409Z,6.32
2023-04-16T22:17:44.894Z,6.18
2023-04-16T22:20:12.820Z,8.60
2023-04-16T22:22:41.849Z,8.48
2023-04-16T22:25:09.995Z,8.38
2023-04-16T22:27:37.846Z,6.80
2023-04-16T22:30:06.438Z,9.60
2023-04-16T22:32:33.991Z,6.95
2023-04-16T22:35:01.617Z,7.28
2023-04-16T22:37:29.102Z,6.78
2023-04-16T22:39:58.005Z,6.90
2023-04-16T22:42:25.469Z,7.33
2023-04-16T22:44:52.948Z,6.30
2023-04-16T22:47:20.434Z,8.95
2023-04-16T22:49:47.917Z,6.70
2023-04-16T22:52:15.504Z,6.82
2023-04-16T22:54:42.952Z,6.68
2023-04-16T22:57:11.878Z,6.35
2023-04-16T22:59:39.406Z,7.25
2023-04-16T23:02:06.917Z,7.10
2023-04-16T23:04:34.924Z,6.20
2023-04-16T23:07:02.469Z,5.63
2023-04-16T23:09:29.926Z,7.28
2023-04-16T23:11:57.380Z,8.63
2023-04-16T23:14:26.304Z,7.75
2023-04-16T23:16:53.759Z,5.97
2023-04-16T23:19:21.197Z,6.28
2023-04-16T23:21:48.739Z,6.10
2023-04-16T23:24:16.190Z,10.10
2023-04-16T23:26:43.727Z,7.32
2023-04-16T23:29:11.448Z,6.00
2023-04-16T23:31:40.625Z,6.90
2023-04-16T23:34:08.595Z,7.40
2023-04-16T23:36:36.040Z,5.43
2023-04-16T23:39:03.851Z,6.60
2023-04-16T23:41:31.653Z,7.03
2023-04-16T23:43:59.122Z,6.95
2023-04-16T23:46:26.641Z,6.72
2023-04-16T23:48:55.559Z,8.15
2023-04-16T23:51:23.000Z,6.50
2023-04-16T23:53:50.782Z,6.75
2023-04-16T23:56:18.408Z,8.77
2023-04-16T23:58:45.901Z,6.40
